Time;durP1;ratioP1;P1;durP2;ratioP2;P2;SDS_P1;SDS_P2;PMS_P1;PMS_P2;Temp;Humidity;BMP_temperature;BMP_pressure;BME280_temperature;BME280_humidity;BME280_pressure;Samples;Min_cycle;Max_cycle;Signal;HPM_P1;HPM_P2
2023/01/03 00:00:10;;;;;;;28.55;3.00;;;;;;;22.03;61.61;100180.59;7317625;19;129174;-69
2023/01/03 00:02:36;;;;;;;26.85;2.65;;;;;;;22.05;61.78;100181.28;7316654;19;129479;-66
2023/01/03 00:05:01;;;;;;;64.40;6.90;;;;;;;22.06;61.39;100185.59;7317335;19;130150;-67
2023/01/03 00:07:33;;;;;;;17.52;2.03;;;;;;;22.08;60.95;100193.31;7318125;19;129835;-71
2023/01/03 00:10:07;;;;;;;20.92;2.42;;;;;;;22.08;61.90;100193.31;7316674;19;128900;-68
2023/01/03 00:12:35;;;;;;;13.07;1.67;;;;;;;22.07;61.21;100189.00;7313889;19;129627;-66
2023/01/03 00:15:00;;;;;;;48.05;5.45;;;;;;;22.09;61.52;100192.34;7316454;19;129097;-68
2023/01/03 00:17:26;;;;;;;13.32;1.70;;;;;;;21.98;60.98;100172.31;7317085;19;129321;-69
2023/01/03 00:19:52;;;;;;;19.30;2.22;;;;;;;22.09;61.22;100190.56;7317835;19;129159;-69
2023/01/03 00:22:18;;;;;;;21.40;2.58;;;;;;;22.11;60.82;100198.28;7314029;19;129262;-68
2023/01/03 00:24:44;;;;;;;12.90;1.77;;;;;;;22.09;61.31;100194.94;7316966;19;129578;-68
2023/01/03 00:27:11;;;;;;;26.85;2.75;;;;;;;22.01;61.56;100181.69;7315272;19;129549;-68
2023/01/03 00:29:36;;;;;;;12.63;1.60;;;;;;;22.11;60.98;100199.13;7318042;19;128754;-66
2023/01/03 00:32:02;;;;;;;22.40;2.50;;;;;;;22.11;61.14;100208.75;7313254;19;129415;-69
2023/01/03 00:34:28;;;;;;;24.15;2.55;;;;;;;22.13;61.32;100201.59;7314542;19;129213;-70
2023/01/03 00:36:53;;;;;;;14.95;1.98;;;;;;;22.12;61.16;100205.16;7314950;19;129218;-68
2023/01/03 00:39:19;;;;;;;22.85;2.50;;;;;;;22.14;61.19;100206.72;7316591;19;129261;-66
2023/01/03 00:41:44;;;;;;;14.13;1.80;;;;;;;22.13;60.73;100206.84;7314855;19;129480;-68
2023/01/03 00:44:10;;;;;;;38.40;3.60;;;;;;;22.13;61.02;100209.47;7316369;19;129917;-66
2023/01/03 00:46:35;;;;;;;19.83;2.33;;;;;;;22.13;61.00;100207.66;7322106;19;130084;-70
2023/01/03 00:49:02;;;;;;;26.45;2.67;;;;;;;22.12;61.38;100215.66;7316404;19;128738;-69
2023/01/03 00:51:30;;;;;;;37.67;3.60;;;;;;;22.12;61.54;100221.72;7313599;19;129975;-67
2023/01/03 00:53:57;;;;;;;26.88;3.28;;;;;;;22.12;60.84;100226.13;7316032;19;129529;-69
2023/01/03 00:56:24;;;;;;;;;;;;;;;22.16;61.66;100219.69;7315078;19;129177;-68
2023/01/03 00:58:50;;;;;;;18.88;2.08;;;;;;;22.10;61.20;100225.44;7317591;19;129768;-68
2023/01/03 01:01:28;;;;;;;14.50;1.63;;;;;;;22.11;61.45;100237.56;7313684;19;129405;-66
2023/01/03 01:03:58;;;;;;;20.75;2.42;;;;;;;22.08;61.16;100235.19;7313660;19;129934;-67
2023/01/03 01:06:59;;;;;;;22.88;2.60;;;;;;;22.07;61.76;100228.28;7314396;19;129789;-71
2023/01/03 01:09:27;;;;;;;33.58;3.08;;;;;;;22.07;61.04;100233.53;7315826;19;130855;-66
2023/01/03 01:11:54;;;;;;;20.80;2.33;;;;;;;21.95;61.42;100219.66;7312646;19;129161;-69
2023/01/03 01:14:21;;;;;;;16.35;1.90;;;;;;;22.05;61.48;100241.50;7316808;19;129617;-66
2023/01/03 01:16:57;;;;;;;16.15;1.83;;;;;;;22.06;60.87;100258.06;7313245;19;129481;-68
2023/01/03 01:19:26;;;;;;;25.08;2.80;;;;;;;22.05;61.53;100259.84;7315535;19;129853;-66
2023/01/03 01:21:51;;;;;;;24.98;2.50;;;;;;;22.03;61.65;100263.56;7314754;19;128895;-69
2023/01/03 01:24:17;;;;;;;15.15;1.80;;;;;;;22.04;60.98;100270.44;7316857;19;130233;-67
2023/01/03 01:26:43;;;;;;;17.17;1.97;;;;;;;22.03;61.40;100276.66;7314332;19;129138;-68
2023/01/03 01:29:10;;;;;;;22.10;2.50;;;;;;;22.03;61.12;100284.50;7314852;19;129480;-66
2023/01/03 01:31:36;;;;;;;22.13;2.35;;;;;;;22.04;61.69;100280.91;7313294;19;129673;-71
2023/01/03 01:34:02;;;;;;;8.13;1.27;;;;;;;22.02;61.35;100288.91;7314344;19;131944;-69
2023/01/03 01:36:31;;;;;;;25.48;2.50;;;;;;;22.03;61.08;100289.75;7312329;19;129235;-66
2023/01/03 01:38:58;;;;;;;15.68;1.63;;;;;;;22.01;61.74;100286.41;7316109;19;129187;-69
2023/01/03 01:44:54;;;;;;;24.20;2.28;;;;;;;22.02;62.16;100303.78;7315370;19;129204;-68
2023/01/03 01:47:26;;;;;;;13.68;1.45;;;;;;;22.00;61.95;100311.75;7311584;19;132008;-69
2023/01/03 01:50:03;;;;;;;35.55;3.42;;;;;;;21.98;62.20;100304.03;7314682;19;129335;-67
2023/01/03 01:52:32;;;;;;;38.20;3.63;;;;;;;21.97;61.68;100312.00;7311683;19;129233;-68
2023/01/03 01:55:00;;;;;;;44.08;4.70;;;;;;;21.98;61.30;100315.47;7314536;19;129076;-67
2023/01/03 01:57:26;;;;;;;22.80;2.33;;;;;;;21.96;61.68;100316.41;7315433;19;130752;-68
2023/01/03 01:59:51;;;;;;;24.15;2.33;;;;;;;21.97;61.49;100325.09;7314231;19;129352;-68
2023/01/03 02:02:20;;;;;;;30.87;3.07;;;;;;;21.96;61.78;100315.59;7312645;19;129497;-68
2023/01/03 02:04:48;;;;;;;35.22;3.40;;;;;;;21.94;61.17;100315.72;7313953;19;130906;-66
2023/01/03 02:07:14;;;;;;;23.40;2.25;;;;;;;21.93;61.08;100316.66;7312022;19;129167;-70
2023/01/03 02:09:40;;;;;;;6.22;1.02;;;;;;;21.94;61.61;100323.56;7312412;19;129704;-69
2023/01/03 02:15:28;;;;;;;29.23;2.72;;;;;;;21.95;61.75;100332.22;7311869;19;129311;-67
2023/01/03 02:18:18;;;;;;;14.73;1.63;;;;;;;21.83;61.61;100315.72;7313225;19;129698;-66
2023/01/03 02:21:11;;;;;;;21.27;2.15;;;;;;;21.93;61.95;100337.59;7312664;19;129572;-66
2023/01/03 02:24:24;;;;;;;21.17;2.30;;;;;;;21.87;61.49;100335.50;7313660;19;129119;-69
2023/01/03 02:27:33;;;;;;;16.75;1.70;;;;;;;21.92;61.32;100330.72;7310029;19;129852;-67
2023/01/03 02:30:44;;;;;;;29.55;3.03;;;;;;;21.93;61.38;100336.78;7312652;19;129268;-71
2023/01/03 02:33:23;;;;;;;22.70;2.22;;;;;;;21.89;61.52;100332.75;7310219;19;129576;-67
2023/01/03 02:36:03;;;;;;;22.52;2.35;;;;;;;21.78;61.62;100317.09;7314521;19;129789;-69
2023/01/03 02:38:39;;;;;;;27.15;2.75;;;;;;;21.88;61.64;100331.09;7312601;19;129294;-71
2023/01/03 02:41:31;;;;;;;22.33;2.28;;;;;;;21.89;61.86;100336.19;7311445;19;129552;-66
2023/01/03 02:44:12;;;;;;;11.55;1.55;;;;;;;21.87;61.41;100342.50;7311977;19;129746;-69
2023/01/03 02:46:53;;;;;;;34.00;3.25;;;;;;;21.87;61.18;100335.50;7311569;19;129021;-69
2023/01/03 02:49:38;;;;;;;29.65;3.13;;;;;;;21.78;61.62;100330.97;7312736;19;129412;-69
2023/01/03 02:52:11;;;;;;;28.35;2.63;;;;;;;21.86;61.69;100333.84;7310153;19;129263;-68
2023/01/03 02:54:45;;;;;;;20.33;2.03;;;;;;;21.76;61.30;100318.94;7312960;19;128928;-68
2023/01/03 02:57:14;;;;;;;19.50;1.98;;;;;;;21.83;62.04;100339.28;7311500;19;129319;-69
2023/01/03 02:59:47;;;;;;;14.52;1.52;;;;;;;21.83;62.10;100341.09;7311642;19;129085;-69
2023/01/03 03:02:16;;;;;;;29.67;2.88;;;;;;;21.81;61.77;100343.84;7311303;19;129615;-68
2023/01/03 03:04:44;;;;;;;9.02;1.25;;;;;;;21.81;61.51;100343.00;7312404;19;129210;-66
2023/01/03 03:07:18;;;;;;;23.30;2.45;;;;;;;21.72;61.61;100333.22;7311292;19;129293;-66
2023/01/03 03:15:21;;;;;;;30.55;2.95;;;;;;;21.80;61.52;100344.78;7312206;19;129249;-68
2023/01/03 03:17:49;;;;;;;41.58;3.85;;;;;;;21.81;61.78;100349.06;7310137;19;128940;-67
2023/01/03 03:25:58;;;;;;;32.67;3.15;;;;;;;21.81;61.94;100354.31;7311178;19;128834;-69
2023/01/03 03:28:36;;;;;;;14.20;1.50;;;;;;;21.80;61.71;100352.63;7324688;19;130279;-68
2023/01/03 03:31:15;;;;;;;15.50;1.58;;;;;;;21.79;61.14;100350.97;7328834;19;129118;-69
2023/01/03 03:33:49;;;;;;;14.85;1.50;;;;;;;21.78;61.92;100344.06;7329079;19;129444;-65
2023/01/03 03:36:53;;;;;;;35.83;3.42;;;;;;;21.79;61.57;100350.13;7321695;19;128938;-71
2023/01/03 03:45:28;;;;;;;37.28;3.75;;;;;;;21.79;61.86;100360.59;7325648;19;129455;-69
2023/01/03 03:48:04;;;;;;;20.15;2.00;;;;;;;21.75;61.46;100359.97;7326787;19;129206;-70
2023/01/03 03:50:42;;;;;;;19.17;1.90;;;;;;;21.64;61.54;100340.84;7322633;19;129205;-68
2023/01/03 03:53:10;;;;;;;22.05;2.20;;;;;;;21.75;61.75;100370.44;7325146;19;129528;-68
2023/01/03 03:55:46;;;;;;;23.02;2.17;;;;;;;21.76;62.25;100368.69;7321921;19;132074;-68
2023/01/03 03:58:17;;;;;;;35.75;3.28;;;;;;;21.75;62.15;100375.69;7325818;19;129043;-72
2023/01/03 04:00:44;;;;;;;31.65;3.00;;;;;;;21.74;61.83;100387.13;7323269;19;129162;-68
2023/01/03 04:03:12;;;;;;;19.05;2.05;;;;;;;21.70;61.41;100380.47;7325152;19;129633;-67
2023/01/03 04:05:47;;;;;;;22.73;2.08;;;;;;;21.75;62.39;100378.31;7323149;19;129646;-69
2023/01/03 04:08:12;;;;;;;19.05;1.88;;;;;;;21.75;61.58;100374.88;7324913;19;128898;-67
2023/01/03 04:10:38;;;;;;;27.13;2.60;;;;;;;21.73;61.33;100382.81;7324607;19;129664;-67
2023/01/03 04:13:04;;;;;;;33.75;3.33;;;;;;;21.72;61.46;100381.19;7323687;19;131836;-69
2023/01/03 04:15:29;;;;;;;22.50;2.17;;;;;;;21.72;61.68;100383.78;7323156;19;129232;-68
2023/01/03 04:17:54;;;;;;;17.13;1.83;;;;;;;21.61;61.72;100373.34;7322605;19;129011;-70
2023/01/03 04:20:20;;;;;;;24.02;2.05;;;;;;;21.69;61.87;100389.28;7323436;19;128783;-69
2023/01/03 04:22:45;;;;;;;15.40;1.75;;;;;;;21.72;61.70;100391.63;7325874;19;129515;-66
2023/01/03 04:25:10;;;;;;;38.15;3.67;;;;;;;21.68;61.72;100390.19;7323723;19;130406;-68
2023/01/03 04:27:36;;;;;;;39.38;3.65;;;;;;;21.72;61.56;100398.66;7323064;19;129779;-68
2023/01/03 04:30:03;;;;;;;33.20;3.03;;;;;;;21.70;61.46;100396.16;7323957;19;129274;-69
2023/01/03 04:32:28;;;;;;;15.88;1.67;;;;;;;21.70;61.47;100398.78;7319966;19;130764;-69
2023/01/03 04:34:53;;;;;;;33.17;3.88;;;;;;;21.61;60.81;100399.50;7323750;19;129127;-69
2023/01/03 04:37:19;;;;;;;32.13;2.85;;;;;;;21.48;59.29;100403.19;7323290;19;129193;-67
2023/01/03 04:39:44;;;;;;;20.07;2.07;;;;;;;21.37;60.03;100411.06;7317607;19;129087;-68
2023/01/03 04:44:53;;;;;;;37.58;4.13;;;;;;;21.65;59.20;100421.84;7314518;19;128990;-68
2023/01/03 04:47:19;;;;;;;30.60;2.90;;;;;;;21.80;58.80;100431.16;7314021;19;129212;-68
2023/01/03 04:49:46;;;;;;;30.35;2.92;;;;;;;21.98;58.58;100431.50;7314866;19;129313;-69
2023/01/03 04:52:14;;;;;;;29.52;2.65;;;;;;;22.08;57.68;100428.97;7313374;19;129001;-67
2023/01/03 04:54:40;;;;;;;18.73;1.90;;;;;;;22.04;57.88;100419.69;7316319;19;129110;-67
2023/01/03 04:57:07;;;;;;;29.73;2.70;;;;;;;22.24;57.83;100434.66;7313664;19;129444;-70
2023/01/03 04:59:32;;;;;;;19.75;1.90;;;;;;;22.33;57.11;100436.53;7315840;19;129379;-70
2023/01/03 05:01:58;;;;;;;13.83;1.60;;;;;;;22.39;57.63;100441.28;7314574;19;129763;-67
2023/01/03 05:04:23;;;;;;;14.97;1.60;;;;;;;22.46;56.89;100445.06;7313487;19;132615;-69
2023/01/03 05:06:51;;;;;;;9.38;1.10;;;;;;;22.37;57.01;100419.59;7315345;19;128611;-66
2023/01/03 05:09:16;;;;;;;36.33;3.30;;;;;;;22.50;57.07;100444.69;7314744;19;131220;-67
2023/01/03 05:11:42;;;;;;;17.45;1.65;;;;;;;22.58;56.70;100441.47;7313529;19;130246;-66
2023/01/03 05:14:07;;;;;;;28.10;2.73;;;;;;;22.68;56.57;100442.38;7314862;19;129544;-69
2023/01/03 05:16:33;;;;;;;18.57;1.80;;;;;;;22.73;56.50;100443.66;7312750;19;129078;-70
2023/01/03 05:18:58;;;;;;;13.17;1.40;;;;;;;22.78;56.39;100440.66;7317986;19;129393;-68
2023/01/03 05:26:55;;;;;;;23.77;2.35;;;;;;;22.97;55.89;100452.13;7311420;19;131491;-65
2023/01/03 05:29:22;;;;;;;25.63;2.53;;;;;;;23.04;55.68;100457.69;7313580;19;130381;-68
2023/01/03 05:31:48;;;;;;;33.70;2.83;;;;;;;23.08;55.41;100459.94;7311242;19;129005;-69
2023/01/03 05:34:13;;;;;;;35.92;3.10;;;;;;;23.13;55.51;100467.41;7314292;19;129119;-69
2023/01/03 05:36:39;;;;;;;13.60;1.27;;;;;;;23.08;55.84;100466.97;7311751;19;129559;-66
2023/01/03 05:39:05;;;;;;;36.07;3.67;;;;;;;22.91;56.41;100450.00;7313340;19;129475;-66
2023/01/03 05:44:14;;;;;;;40.28;3.40;;;;;;;22.80;56.94;100470.22;7312321;19;130263;-66
2023/01/03 05:46:39;;;;;;;15.30;1.67;;;;;;;22.70;57.00;100488.50;7313739;19;130391;-66
2023/01/03 05:49:05;;;;;;;29.20;2.90;;;;;;;22.61;57.26;100483.16;7313677;19;129054;-66
2023/01/03 05:51:30;;;;;;;20.07;2.17;;;;;;;22.53;58.11;100482.94;7309847;19;130029;-66
2023/01/03 05:53:55;;;;;;;29.20;2.77;;;;;;;22.48;58.42;100477.19;7312855;19;131483;-66
2023/01/03 05:56:21;;;;;;;23.00;2.13;;;;;;;22.44;57.98;100488.91;7312806;19;129857;-65
2023/01/03 05:58:46;;;;;;;14.75;1.27;;;;;;;22.38;58.10;100484.16;7314281;19;129300;-66
2023/01/03 06:01:13;;;;;;;16.40;1.73;;;;;;;22.30;58.90;100497.00;7312804;19;129417;-66
2023/01/03 06:03:43;;;;;;;26.75;2.35;;;;;;;22.27;58.24;100492.88;7313239;19;129210;-68
2023/01/03 06:06:08;;;;;;;17.73;1.88;;;;;;;22.27;58.68;100497.25;7312741;19;129038;-66
2023/01/03 06:08:34;;;;;;;20.90;2.00;;;;;;;22.25;58.26;100491.31;7312900;19;129244;-65
2023/01/03 06:11:07;;;;;;;18.67;2.10;;;;;;;22.27;58.56;100487.63;7310978;19;129926;-68
2023/01/03 06:13:32;;;;;;;28.70;2.70;;;;;;;22.31;58.83;100493.47;7313053;19;129281;-65
2023/01/03 06:18:50;;;;;;;30.83;2.78;;;;;;;22.50;57.78;100493.63;7314743;19;131006;-69
2023/01/03 06:21:16;;;;;;;25.35;2.10;;;;;;;22.54;57.97;100490.69;7311946;19;129231;-65
2023/01/03 06:23:41;;;;;;;20.47;1.97;;;;;;;22.62;57.04;100492.69;7311186;19;129896;-66
2023/01/03 06:26:07;;;;;;;26.23;2.33;;;;;;;22.70;56.80;100493.72;7309733;19;129810;-65
2023/01/03 06:28:32;;;;;;;35.40;3.43;;;;;;;22.76;57.10;100495.00;7313286;19;128903;-68
2023/01/03 06:30:57;;;;;;;10.68;1.42;;;;;;;22.88;56.30;100496.63;7311893;19;129653;-68
2023/01/03 06:33:23;;;;;;;18.27;1.93;;;;;;;22.93;56.39;100497.91;7310578;19;131148;-67
2023/01/03 06:35:48;;;;;;;32.93;3.10;;;;;;;22.88;56.84;100480.91;7311679;19;129758;-66
2023/01/03 06:38:13;;;;;;;26.92;2.55;;;;;;;22.98;56.73;100500.16;7313760;19;129122;-67
2023/01/03 06:40:45;;;;;;;1.80;0.53;;;;;;;22.82;56.47;100491.91;7311150;19;130011;-65
2023/01/03 06:43:10;;;;;;;19.42;1.85;;;;;;;22.87;57.07;100513.34;7313496;19;129836;-66
2023/01/03 06:53:51;;;;;;;;;;;;;;;22.54;58.96;100506.44;7313725;19;129508;-65
2023/01/03 06:56:17;;;;;;;21.83;2.03;;;;;;;22.51;58.03;100509.22;7312164;19;130517;-68
2023/01/03 06:58:42;;;;;;;19.23;2.17;;;;;;;22.37;58.26;100501.66;7311330;19;129064;-70
2023/01/03 07:01:08;;;;;;;21.23;2.37;;;;;;;22.42;58.93;100517.00;7309913;19;129759;-67
2023/01/03 07:03:33;;;;;;;26.90;2.78;;;;;;;22.39;57.98;100522.50;7309776;19;129203;-66
2023/01/03 07:05:59;;;;;;;16.65;1.80;;;;;;;22.39;58.23;100525.13;7311300;19;128952;-68
2023/01/03 07:08:24;;;;;;;12.70;1.53;;;;;;;22.28;57.92;100509.44;7311494;19;128869;-66
2023/01/03 07:10:49;;;;;;;29.48;2.63;;;;;;;22.40;58.55;100524.16;7310077;19;129478;-68
2023/01/03 07:15:59;;;;;;;28.77;2.78;;;;;;;22.54;58.84;100530.00;7308530;19;129709;-65
2023/01/03 07:18:25;;;;;;;24.80;2.87;;;;;;;22.69;57.59;100547.09;7306755;19;129246;-66
2023/01/03 07:20:51;;;;;;;32.20;2.93;;;;;;;22.82;57.70;100537.31;7306872;19;132694;-67
2023/01/03 07:23:16;;;;;;;36.70;3.17;;;;;;;22.95;56.68;100550.25;7306147;19;129411;-65
2023/01/03 07:25:42;;;;;;;24.90;2.43;;;;;;;23.07;56.74;100544.00;7306536;19;130327;-63
2023/01/03 07:28:09;;;;;;;29.07;2.60;;;;;;;23.21;56.98;100544.53;7307038;19;129708;-65
2023/01/03 07:30:43;;;;;;;37.20;3.30;;;;;;;23.26;57.14;100541.50;7305903;19;129358;-65
2023/01/03 07:33:10;;;;;;;36.17;3.22;;;;;;;23.38;56.69;100543.16;7306532;19;130088;-67
2023/01/03 07:35:36;;;;;;;24.33;2.55;;;;;;;23.38;57.14;100551.03;7307321;19;128897;-63
2023/01/03 07:38:03;;;;;;;23.42;2.20;;;;;;;23.38;56.50;100551.03;7309778;19;130966;-64
2023/01/03 07:40:29;;;;;;;20.40;2.05;;;;;;;23.42;56.89;100548.97;7307955;19;129619;-63
2023/01/03 07:45:42;;;;;;;42.53;3.95;;;;;;;23.08;54.10;100567.47;7306975;19;130576;-68
2023/01/03 07:48:08;;;;;;;38.05;4.05;;;;;;;22.93;54.00;100560.03;7309064;19;129487;-67
2023/01/03 07:50:37;;;;;;;18.27;1.98;;;;;;;22.81;54.59;100568.88;7306786;19;132815;-68
2023/01/03 07:53:04;;;;;;;18.58;1.90;;;;;;;22.69;54.87;100562.00;7306569;19;129729;-68
2023/01/03 07:55:34;;;;;;;39.35;3.90;;;;;;;22.61;56.36;100561.81;7308908;19;129186;-70
2023/01/03 07:57:59;;;;;;;11.82;1.48;;;;;;;22.57;54.85;100569.06;7308479;19;129096;-69
2023/01/03 08:00:25;;;;;;;25.87;2.60;;;;;;;22.56;55.91;100571.81;7308188;19;129991;-68
2023/01/03 08:02:53;;;;;;;30.48;3.00;;;;;;;22.51;56.53;100569.50;7309343;19;129769;-69
2023/01/03 08:05:19;;;;;;;39.03;3.40;;;;;;;22.56;55.58;100571.81;7306288;19;129152;-68
2023/01/03 08:07:47;;;;;;;29.48;3.00;;;;;;;22.57;56.66;100576.94;7309201;19;129457;-69
2023/01/03 08:15:45;;;;;;;25.95;2.58;;;;;;;22.83;55.60;100580.91;7312012;19;129167;-64
2023/01/03 08:18:11;;;;;;;28.45;2.63;;;;;;;23.01;55.68;100596.94;7315408;19;129316;-69
2023/01/03 08:20:37;;;;;;;28.95;2.65;;;;;;;23.12;55.15;100599.53;7313487;19;130614;-68
2023/01/03 08:23:03;;;;;;;19.67;2.10;;;;;;;23.22;55.74;100596.03;7315839;19;129576;-68
2023/01/03 08:25:28;;;;;;;47.83;5.00;;;;;;;23.36;55.67;100594.94;7310556;19;131115;-69
2023/01/03 08:27:57;;;;;;;37.53;4.07;;;;;;;23.41;55.41;100594.53;7314138;19;129045;-67
2023/01/03 08:30:22;;;;;;;33.63;3.00;;;;;;;23.52;54.56;100595.31;7313071;19;129720;-70
2023/01/03 08:32:47;;;;;;;21.70;2.40;;;;;;;23.60;54.89;100594.69;7314702;19;129823;-68
2023/01/03 08:35:14;;;;;;;41.77;3.87;;;;;;;23.63;54.76;100586.56;7312248;19;129398;-70
2023/01/03 08:37:42;;;;;;;21.35;2.28;;;;;;;23.65;55.03;100603.81;7312754;19;129784;-69
2023/01/03 08:40:09;;;;;;;30.33;3.20;;;;;;;23.60;54.91;100598.13;7311657;19;131952;-70
2023/01/03 08:42:36;;;;;;;25.65;2.50;;;;;;;23.52;55.07;100595.31;7313113;19;129757;-70
2023/01/03 08:45:05;;;;;;;31.25;3.75;;;;;;;23.43;55.58;100598.72;7308978;19;129297;-66
2023/01/03 08:47:30;;;;;;;22.38;2.55;;;;;;;23.32;56.04;100593.50;7314453;19;129639;-65
2023/01/03 08:49:57;;;;;;;39.87;4.23;;;;;;;23.24;55.75;100601.16;7312566;19;129424;-69
2023/01/03 08:52:22;;;;;;;18.00;1.92;;;;;;;23.19;56.47;100600.69;7311460;19;129521;-69
2023/01/03 08:54:48;;;;;;;23.42;2.83;;;;;;;23.10;56.69;100601.44;7314471;19;131078;-68
2023/01/03 08:57:13;;;;;;;18.90;2.03;;;;;;;23.09;56.48;100598.00;7313419;19;129401;-68
2023/01/03 08:59:38;;;;;;;27.45;2.97;;;;;;;23.03;57.37;100609.00;7312689;19;131881;-67
2023/01/03 09:02:04;;;;;;;25.77;2.47;;;;;;;23.01;57.51;100615.31;7312751;19;130567;-67
2023/01/03 09:04:29;;;;;;;30.50;2.83;;;;;;;23.02;57.23;100611.75;7315001;19;129914;-69
2023/01/03 09:06:55;;;;;;;30.13;2.58;;;;;;;23.03;57.41;100613.41;7313760;19;130075;-69
2023/01/03 09:09:21;;;;;;;27.30;2.67;;;;;;;23.07;57.50;100613.00;7316132;19;129316;-67
2023/01/03 09:11:46;;;;;;;37.47;3.43;;;;;;;23.17;57.29;100621.00;7312959;19;129884;-71
2023/01/03 09:14:11;;;;;;;28.53;2.63;;;;;;;23.23;56.58;100625.72;7316025;19;129148;-69
2023/01/03 09:16:37;;;;;;;25.10;2.47;;;;;;;23.31;56.71;100620.72;7312412;19;130383;-68
2023/01/03 09:19:02;;;;;;;32.37;3.23;;;;;;;23.40;56.54;100632.25;7311176;19;131781;-67
2023/01/03 09:21:28;;;;;;;30.00;3.27;;;;;;;23.43;54.42;100624.97;7313342;19;129549;-66
2023/01/03 09:23:54;;;;;;;25.23;3.37;;;;;;;23.49;52.75;100629.69;7312859;19;131009;-67
2023/01/03 09:26:19;;;;;;;34.85;3.78;;;;;;;23.56;52.34;100633.47;7311376;19;129356;-68
2023/01/03 09:28:45;;;;;;;39.03;4.10;;;;;;;23.62;52.12;100640.03;7314033;19;129496;-66
2023/01/03 09:31:10;;;;;;;25.83;2.73;;;;;;;23.53;52.52;100639.00;7310773;19;132404;-67
2023/01/03 09:33:35;;;;;;;22.77;3.73;;;;;;;23.45;52.03;100640.59;7312573;19;128830;-65
2023/01/03 09:36:01;;;;;;;37.58;4.15;;;;;;;23.37;52.44;100638.56;7312886;19;129395;-66
2023/01/03 09:38:26;;;;;;;30.37;3.63;;;;;;;23.15;52.48;100623.72;7311531;19;129584;-65
2023/01/03 09:41:01;;;;;;;25.87;3.03;;;;;;;23.19;53.61;100640.03;7312373;19;130023;-66
2023/01/03 09:43:35;;;;;;;28.05;3.38;;;;;;;23.15;55.08;100633.41;7312885;19;129237;-66
2023/01/03 09:46:01;;;;;;;35.60;3.63;;;;;;;23.08;55.06;100640.94;7312647;19;129142;-66
2023/01/03 09:48:39;;;;;;;36.30;3.93;;;;;;;23.03;56.53;100639.63;7311789;19;129408;-67
2023/01/03 10:03:42;;;;;;;;;;;;;;;22.97;56.08;100635.69;7312242;19;129306;-68
2023/01/03 10:05:40;;;;;;;44.10;4.20;;;;;;;23.37;54.38;100643.81;7314107;19;128982;-68
2023/01/03 10:08:38;;;;;;;45.00;4.90;;;;;;;23.51;54.10;100647.94;7312177;19;129432;-68
2023/01/03 10:11:33;;;;;;;28.80;3.70;;;;;;;23.66;52.78;100650.13;7310928;19;132533;-67
2023/01/03 10:14:19;;;;;;;37.60;4.15;;;;;;;23.80;52.98;100641.94;7312930;19;129609;-68
2023/01/03 10:16:52;;;;;;;57.70;5.68;;;;;;;23.98;52.48;100647.47;7310219;19;129199;-66
2023/01/03 10:19:39;;;;;;;31.77;3.67;;;;;;;23.83;52.49;100633.78;7311234;19;128855;-66
2023/01/03 10:22:05;;;;;;;35.47;4.13;;;;;;;23.86;52.10;100646.69;7311291;19;129780;-68
2023/01/03 10:24:35;;;;;;;27.00;2.93;;;;;;;23.67;52.70;100630.78;7312883;19;129187;-68
2023/01/03 10:27:12;;;;;;;38.72;4.45;;;;;;;23.67;52.42;100646.53;7311060;19;130923;-68
2023/01/03 10:29:37;;;;;;;27.55;3.45;;;;;;;23.59;52.80;100640.25;7311678;19;129705;-67
2023/01/03 10:32:40;;;;;;;27.13;3.60;;;;;;;23.42;53.93;100641.66;7305105;19;130748;-68
2023/01/03 10:35:28;;;;;;;41.80;5.28;;;;;;;23.33;53.78;100650.28;7309753;19;129825;-66
2023/01/03 10:37:54;;;;;;;37.33;4.10;;;;;;;23.21;54.41;100648.63;7307424;19;129121;-66
2023/01/03 10:40:29;;;;;;;;;;;;;;;23.09;55.69;100633.88;7312677;19;128999;-68
2023/01/03 10:42:55;;;;;;;47.83;4.82;;;;;;;23.04;55.33;100636.03;7310313;19;129732;-68
2023/01/03 10:45:20;;;;;;;22.93;3.07;;;;;;;22.97;55.97;100630.44;7310593;19;129687;-68
2023/01/03 10:48:00;;;;;;;20.80;2.78;;;;;;;22.94;55.88;100632.50;7309681;19;130037;-68
2023/01/03 10:50:27;;;;;;;38.38;4.25;;;;;;;22.96;55.63;100634.03;7308881;19;132354;-67
2023/01/03 10:53:04;;;;;;;33.95;3.90;;;;;;;23.00;55.54;100630.22;7302927;19;131991;-66
2023/01/03 10:55:33;;;;;;;30.60;3.42;;;;;;;23.08;55.24;100638.31;7310086;19;129523;-68
2023/01/03 10:58:01;;;;;;;40.72;4.38;;;;;;;23.23;54.67;100636.22;7307168;19;129186;-67
2023/01/03 11:00:31;;;;;;;36.92;3.40;;;;;;;23.38;55.08;100628.91;7305710;19;129601;-66
2023/01/03 11:03:18;;;;;;;34.88;3.72;;;;;;;23.59;53.90;100632.38;7307325;19;129284;-68
2023/01/03 11:05:46;;;;;;;31.27;3.30;;;;;;;23.65;53.91;100632.72;7306111;19;129704;-68
2023/01/03 11:08:20;;;;;;;40.53;4.57;;;;;;;23.77;54.08;100631.69;7306700;19;128990;-68
2023/01/03 11:11:27;;;;;;;41.05;3.63;;;;;;;23.79;53.80;100629.78;7308462;19;129019;-68
2023/01/03 11:14:10;;;;;;;17.77;2.33;;;;;;;23.74;53.59;100626.69;7310151;19;129241;-67
2023/01/03 11:16:35;;;;;;;37.72;3.83;;;;;;;23.64;53.76;100628.44;7310714;19;129133;-67
2023/01/03 11:19:02;;;;;;;39.10;3.93;;;;;;;23.52;54.56;100629.44;7310871;19;129379;-67
2023/01/03 11:21:50;;;;;;;20.42;2.78;;;;;;;23.40;54.49;100617.34;7311801;19;128790;-65
2023/01/03 11:24:15;;;;;;;19.50;2.47;;;;;;;23.28;54.95;100615.72;7311329;19;129628;-66
2023/01/03 11:26:55;;;;;;;18.07;2.37;;;;;;;23.17;55.59;100611.31;7308892;19;129363;-68
2023/01/03 11:29:39;;;;;;;27.25;2.65;;;;;;;23.08;55.89;100608.59;7310438;19;129183;-68
2023/01/03 11:32:29;;;;;;;22.67;2.58;;;;;;;23.03;56.71;100602.91;7308198;19;129457;-66
2023/01/03 11:35:33;;;;;;;31.85;3.70;;;;;;;22.94;56.19;100607.09;7310072;19;129847;-66
2023/01/03 11:38:04;;;;;;;35.33;4.10;;;;;;;22.82;56.77;100591.53;7309440;19;129568;-68
2023/01/03 11:40:51;;;;;;;29.50;2.85;;;;;;;22.95;56.18;100605.31;7309604;19;129557;-67
2023/01/03 11:43:34;;;;;;;23.25;2.45;;;;;;;23.04;55.69;100605.41;7311707;19;129748;-66
2023/01/03 11:46:34;;;;;;;38.40;4.22;;;;;;;23.17;55.71;100602.63;7307515;19;129137;-67
2023/01/03 11:49:19;;;;;;;39.00;4.53;;;;;;;23.37;54.79;100604.44;7312935;19;129251;-66
2023/01/03 11:51:51;;;;;;;26.20;2.70;;;;;;;23.48;54.71;100599.16;7315563;19;129116;-68
2023/01/03 11:54:36;;;;;;;33.90;3.30;;;;;;;23.64;54.23;100598.69;7315984;19;129645;-68
2023/01/03 11:57:13;;;;;;;26.38;3.00;;;;;;;23.76;54.45;100597.69;7315353;19;130132;-67
2023/01/03 11:59:46;;;;;;;33.17;3.33;;;;;;;23.82;53.92;100605.03;7316685;19;129651;-67
2023/01/03 12:02:17;;;;;;;30.65;3.40;;;;;;;23.80;53.51;100599.91;7315473;19;129174;-68
2023/01/03 12:05:09;;;;;;;11.57;1.80;;;;;;;23.63;54.02;100590.03;7317183;19;129174;-67
2023/01/03 12:08:01;;;;;;;18.38;2.40;;;;;;;23.62;54.50;100606.72;7314326;19;129503;-67
2023/01/03 12:10:51;;;;;;;19.25;2.28;;;;;;;23.46;55.00;100611.59;7313648;19;131566;-66
2023/01/03 12:13:48;;;;;;;20.85;2.40;;;;;;;23.34;54.79;100607.34;7315939;19;128850;-67
2023/01/03 12:16:25;;;;;;;25.57;2.83;;;;;;;23.24;55.23;100595.91;7316568;19;129738;-67
2023/01/03 12:19:13;;;;;;;20.23;2.28;;;;;;;23.19;55.40;100595.44;7314526;19;131829;-66
2023/01/03 12:21:46;;;;;;;21.77;2.72;;;;;;;23.11;56.00;100601.31;7313807;19;129825;-68
2023/01/03 12:24:27;;;;;;;28.80;2.85;;;;;;;23.05;56.03;100604.47;7317067;19;129028;-68
2023/01/03 12:26:55;;;;;;;21.83;2.33;;;;;;;22.96;56.21;100601.72;7312984;19;129635;-67
2023/01/03 12:29:28;;;;;;;36.60;3.75;;;;;;;22.98;56.67;100605.91;7316242;19;129072;-66
2023/01/03 12:32:10;;;;;;;32.95;3.45;;;;;;;22.96;56.33;100596.47;7313563;19;131665;-65
2023/01/03 12:35:14;;;;;;;35.28;3.78;;;;;;;23.03;55.96;100587.16;7316642;19;129275;-67